METAR Formatted Surface Weather Observation
Issued by NWS

Home | Current Version | Previous Version | Text Only | Print | Product List | Glossary On
Versions: 1 2 3 4 5 6 7 8 9 10 11 12 13 14 15 16 17 18 19 20 21 22
000
SAUS44 KFWD 151501
MTRHLR
METAR KHLR 151456Z AUTO 26011KT 10SM CLR 16/02 A3000 RMK AO2 SLP186
T01560017 51026 $



USA.gov is the U.S. government's official web portal to all federal, state and local government web resources and services.